Time;durP1;ratioP1;P1;durP2;ratioP2;P2;SDS_P1;SDS_P2;PMS_P1;PMS_P2;Temp;Humidity;BMP_temperature;BMP_pressure;BME280_temperature;BME280_humidity;BME280_pressure;Samples;Min_cycle;Max_cycle;Signal;HPM_P1;HPM_P2
2022/07/20 00:02:04;;;;;;;;;;;;;;;23.99;36.18;100270.94;4439637;32;20421;-82
2022/07/20 00:04:31;;;;;;;;;;;;;;;24.36;35.39;100275.03;4432258;32;20019;-82
2022/07/20 00:06:59;;;;;;;;;;;;;;;24.06;35.83;100272.50;4432300;32;20000;-82
2022/07/20 00:12:25;;;;;;;;;;;;;;;24.59;34.44;100269.81;4450834;32;20027;-82
2022/07/20 00:14:52;;;;;;;;;;;;;;;24.61;34.73;100263.63;4432719;32;19989;-82
2022/07/20 00:17:19;;;;;;;;;;;;;;;24.82;35.07;100268.16;4446982;32;20001;-81
2022/07/20 00:19:46;;;;;;;;;;;;;;;24.75;35.46;100261.34;4446592;32;20021;-83
2022/07/20 00:22:13;;;;;;;;;;;;;;;24.90;35.83;100268.75;4110125;32;10004682;-84
2022/07/20 00:24:40;;;;;;;;;;;;;;;24.88;35.84;100267.94;4401165;32;19985;-83
2022/07/20 00:27:07;;;;;;;;;;;;;;;24.71;36.18;100265.03;4106651;32;5001305;-83
2022/07/20 00:29:34;;;;;;;;;;;;;;;24.77;35.92;100270.13;4402636;32;20021;-83
2022/07/20 00:32:01;;;;;;;;;;;;;;;24.69;36.14;100280.09;4401282;32;19982;-82
2022/07/20 00:34:28;;;;;;;;;;;;;;;24.52;37.47;100270.97;4408154;32;19985;-82
2022/07/20 00:36:55;;;;;;;;;;;;;;;24.66;36.98;100273.12;4387345;32;20031;-83
2022/07/20 00:39:22;;;;;;;;;;;;;;;24.56;37.09;100266.44;4399617;32;20558;-82
2022/07/20 00:41:49;;;;;;;;;;;;;;;24.64;37.19;100274.13;4433086;32;20038;-82
2022/07/20 00:44:25;;;;;;;;;;;;;;;24.73;36.53;100273.75;4459201;32;19988;-82
2022/07/20 00:46:53;;;;;;;;;;;;;;;24.80;35.86;100275.31;4438482;32;105894;-83
2022/07/20 00:49:20;;;;;;;;;;;;;;;24.74;36.24;100264.94;4415144;32;19978;-82
2022/07/20 00:51:46;;;;;;;;;;;;;;;24.77;35.80;100272.75;4416949;32;19966;-82
2022/07/20 00:54:14;;;;;;;;;;;;;;;24.66;36.07;100272.25;4415072;32;19993;-83
2022/07/20 00:56:41;;;;;;;;;;;;;;;24.61;36.21;100274.22;4417291;32;20335;-82
2022/07/20 00:59:08;;;;;;;;;;;;;;;24.43;37.04;100273.91;4417225;32;20378;-83
2022/07/20 01:01:35;;;;;;;;;;;;;;;24.44;37.33;100273.03;4437224;32;19969;-83
2022/07/20 01:04:03;;;;;;;;;;;;;;;24.26;37.68;100273.59;4452721;32;20535;-83
2022/07/20 01:06:31;;;;;;;;;;;;;;;24.26;37.69;100273.59;4463379;32;20011;-82
2022/07/20 01:08:58;;;;;;;;;;;;;;;24.19;38.00;100283.53;4444049;32;20020;-82
2022/07/20 01:11:25;;;;;;;;;;;;;;;24.04;38.35;100274.31;4454193;32;20333;-82
2022/07/20 01:13:52;;;;;;;;;;;;;;;24.01;38.60;100271.75;4463485;32;20032;-82
2022/07/20 01:16:19;;;;;;;;;;;;;;;24.11;37.98;100270.53;4446108;32;20286;-82
2022/07/20 01:18:46;;;;;;;;;;;;;;;24.04;37.86;100279.59;4462266;32;20011;-82
2022/07/20 01:21:13;;;;;;;;;;;;;;;24.02;38.07;100276.12;4463406;32;20025;-82
2022/07/20 01:23:40;;;;;;;;;;;;;;;23.97;38.16;100277.22;4423875;32;20012;-83
2022/07/20 01:26:07;;;;;;;;;;;;;;;23.94;37.71;100272.88;4441246;32;20003;-82
2022/07/20 01:28:34;;;;;;;;;;;;;;;23.84;39.01;100276.72;4433842;32;20001;-82
2022/07/20 01:31:01;;;;;;;;;;;;;;;23.70;39.50;100284.22;4435850;32;19973;-82
2022/07/20 01:33:28;;;;;;;;;;;;;;;23.70;39.13;100281.56;4447278;32;20040;-83
2022/07/20 01:35:55;;;;;;;;;;;;;;;23.89;38.26;100280.06;4445515;32;19989;-82
2022/07/20 01:38:22;;;;;;;;;;;;;;;23.82;38.84;100281.19;4440979;32;20360;-82
2022/07/20 01:40:49;;;;;;;;;;;;;;;23.74;38.87;100283.19;4425707;32;20843;-82
2022/07/20 01:43:16;;;;;;;;;;;;;;;23.66;38.91;100279.00;4432416;32;20024;-82
2022/07/20 01:45:43;;;;;;;;;;;;;;;23.56;39.45;100277.53;4435696;32;20043;-82
2022/07/20 01:48:10;;;;;;;;;;;;;;;23.37;40.01;100276.38;4437708;32;19989;-82
2022/07/20 01:50:37;;;;;;;;;;;;;;;23.47;39.43;100283.09;4405400;32;19990;-82
2022/07/20 01:53:05;;;;;;;;;;;;;;;23.46;39.50;100276.09;4418588;32;19997;-82
2022/07/20 01:55:32;;;;;;;;;;;;;;;23.69;38.04;100282.50;4440403;32;19995;-82
2022/07/20 01:57:59;;;;;;;;;;;;;;;23.63;38.54;100278.22;4419377;32;20024;-82
2022/07/20 02:00:26;;;;;;;;;;;;;;;23.57;38.61;100284.56;4438586;32;20003;-82
2022/07/20 02:02:53;;;;;;;;;;;;;;;23.61;38.67;100280.94;4417673;32;19990;-83
2022/07/20 02:05:21;;;;;;;;;;;;;;;23.61;38.62;100285.31;4432202;32;20017;-83
2022/07/20 02:07:47;;;;;;;;;;;;;;;23.65;38.34;100286.97;4440370;32;19989;-83
2022/07/20 02:10:14;;;;;;;;;;;;;;;23.66;38.57;100289.56;4432043;32;19992;-83
2022/07/20 02:12:42;;;;;;;;;;;;;;;23.67;38.32;100286.03;4432276;32;19982;-83
2022/07/20 02:15:09;;;;;;;;;;;;;;;23.59;38.21;100282.75;4432081;32;20027;-86
2022/07/20 02:17:39;;;;;;;;;;;;;;;23.71;37.97;100285.94;4439497;32;19993;-83
2022/07/20 02:20:06;;;;;;;;;;;;;;;23.66;37.44;100289.56;4421898;32;19970;-83
2022/07/20 02:22:33;;;;;;;;;;;;;;;23.52;38.41;100290.91;4423928;32;19990;-83
2022/07/20 02:25:00;;;;;;;;;;;;;;;23.62;38.01;100287.94;4426129;32;20036;-81
2022/07/20 02:27:27;;;;;;;;;;;;;;;23.66;37.68;100279.00;4453193;32;19993;-83
2022/07/20 02:29:54;;;;;;;;;;;;;;;23.64;37.06;100280.84;4440529;32;19985;-82
2022/07/20 02:32:21;;;;;;;;;;;;;;;23.50;38.34;100282.16;4424086;32;20045;-83
2022/07/20 02:34:48;;;;;;;;;;;;;;;23.49;38.03;100278.66;4421018;32;20000;-83
2022/07/20 02:37:15;;;;;;;;;;;;;;;23.45;38.56;100277.00;4438451;32;20136;-81
2022/07/20 02:39:42;;;;;;;;;;;;;;;23.40;38.62;100276.28;4438177;32;19981;-81
2022/07/20 02:42:09;;;;;;;;;;;;;;;23.35;38.63;100279.03;4431913;32;19992;-81
2022/07/20 02:44:36;;;;;;;;;;;;;;;23.16;39.30;100276.06;4440497;32;20048;-81
2022/07/20 02:47:03;;;;;;;;;;;;;;;23.27;39.65;100277.56;4432391;32;20116;-84
2022/07/20 02:49:31;;;;;;;;;;;;;;;23.11;39.94;100275.34;4431609;32;19992;-82
2022/07/20 02:51:57;;;;;;;;;;;;;;;23.18;40.10;100276.91;4431542;32;19997;-82
2022/07/20 02:54:25;;;;;;;;;;;;;;;23.04;40.72;100279.09;4431555;32;19995;-82
2022/07/20 02:56:52;;;;;;;;;;;;;;;23.21;40.13;100276.81;4422871;32;20014;-81
2022/07/20 02:59:19;;;;;;;;;;;;;;;23.17;39.89;100280.47;4433388;32;19997;-83
2022/07/20 03:01:46;;;;;;;;;;;;;;;23.02;40.73;100283.53;4440137;32;20037;-83
2022/07/20 03:04:13;;;;;;;;;;;;;;;22.96;41.25;100288.97;4447508;32;19977;-83
2022/07/20 03:06:40;;;;;;;;;;;;;;;22.87;41.41;100287.41;4438113;32;20410;-82
2022/07/20 03:09:07;;;;;;;;;;;;;;;22.85;41.45;100285.75;4445697;32;19989;-82
2022/07/20 03:11:34;;;;;;;;;;;;;;;22.85;41.50;100285.75;4438667;32;20031;-83
2022/07/20 03:14:00;;;;;;;;;;;;;;;22.75;41.88;100291.28;4446853;32;19981;-83
2022/07/20 03:16:28;;;;;;;;;;;;;;;22.82;41.44;100293.75;4444924;32;19986;-83
2022/07/20 03:18:55;;;;;;;;;;;;;;;22.79;41.96;100288.56;4424635;32;19999;-83
2022/07/20 03:21:22;;;;;;;;;;;;;;;22.83;41.67;100290.19;4435242;32;19990;-83
2022/07/20 03:23:49;;;;;;;;;;;;;;;22.79;41.96;100293.84;4444102;32;19988;-84
2022/07/20 03:26:17;;;;;;;;;;;;;;;22.55;42.71;100295.34;4421702;32;20034;-84
2022/07/20 03:28:44;;;;;;;;;;;;;;;22.65;42.61;100297.69;4431217;32;19973;-83
2022/07/20 03:31:10;;;;;;;;;;;;;;;22.56;42.81;100297.94;4431952;32;20049;-82
2022/07/20 03:33:37;;;;;;;;;;;;;;;22.60;42.79;100304.87;4439936;32;20023;-83
2022/07/20 03:36:04;;;;;;;;;;;;;;;22.55;42.29;100301.47;4431301;32;20313;-82
2022/07/20 03:38:31;;;;;;;;;;;;;;;22.73;41.97;100301.00;4439093;32;20040;-82
2022/07/20 03:41:06;;;;;;;;;;;;;;;22.62;42.33;100296.91;4395322;32;20045;-82
2022/07/20 03:43:33;;;;;;;;;;;;;;;22.68;42.51;100307.28;4439816;32;20007;-83
2022/07/20 03:45:59;;;;;;;;;;;;;;;22.68;42.89;100313.44;4444947;32;20044;-82
2022/07/20 03:48:27;;;;;;;;;;;;;;;22.67;42.97;100310.84;4442608;32;20493;-82
2022/07/20 03:50:54;;;;;;;;;;;;;;;22.75;42.38;100309.75;4418417;32;20003;-82
2022/07/20 03:53:21;;;;;;;;;;;;;;;22.91;42.18;100315.50;4435423;32;19999;-82
2022/07/20 03:55:48;;;;;;;;;;;;;;;22.88;42.33;100317.34;4417153;32;19973;-82
2022/07/20 03:58:15;;;;;;;;;;;;;;;22.95;42.61;100318.94;4416417;32;19985;-82
2022/07/20 04:00:43;;;;;;;;;;;;;;;22.90;42.00;100319.00;4435797;32;20367;-83
2022/07/20 04:03:10;;;;;;;;;;;;;;;22.94;41.99;100319.81;4430684;32;20008;-83
2022/07/20 04:05:37;;;;;;;;;;;;;;;22.96;41.74;100318.87;4444962;32;19989;-82
2022/07/20 04:08:04;;;;;;;;;;;;;;;22.96;41.89;100323.31;4444184;32;19991;-82
2022/07/20 04:10:31;;;;;;;;;;;;;;;23.10;42.02;100323.81;4430417;32;19996;-83
2022/07/20 04:12:57;;;;;;;;;;;;;;;23.20;41.50;100322.63;4429214;32;19993;-83
2022/07/20 04:15:24;;;;;;;;;;;;;;;23.17;42.40;100328.00;4429518;32;19995;-82
2022/07/20 04:17:51;;;;;;;;;;;;;;;23.11;42.06;100316.75;4430527;32;19973;-82
2022/07/20 04:20:18;;;;;;;;;;;;;;;23.29;40.83;100320.62;4425953;32;19986;-83
2022/07/20 04:22:45;;;;;;;;;;;;;;;23.28;41.61;100318.91;4415068;32;20007;-83
2022/07/20 04:25:12;;;;;;;;;;;;;;;23.35;41.74;100323.94;4430141;32;19981;-82
2022/07/20 04:27:39;;;;;;;;;;;;;;;23.40;41.80;100331.75;4422712;32;19991;-82
2022/07/20 04:30:06;;;;;;;;;;;;;;;23.44;40.98;100325.47;4439197;32;20003;-83
2022/07/20 04:32:34;;;;;;;;;;;;;;;23.48;40.84;100336.81;4445869;32;19989;-82
2022/07/20 04:35:01;;;;;;;;;;;;;;;23.45;40.77;100327.19;4419059;32;19997;-80
2022/07/20 04:37:28;;;;;;;;;;;;;;;23.61;41.38;100328.50;4445507;32;19969;-82
2022/07/20 04:39:55;;;;;;;;;;;;;;;23.67;40.30;100323.03;4439503;32;19988;-82
2022/07/20 04:42:21;;;;;;;;;;;;;;;23.71;40.36;100328.22;4442685;32;20831;-86
2022/07/20 04:44:48;;;;;;;;;;;;;;;23.77;40.89;100328.03;4432230;32;20051;-85
2022/07/20 04:47:15;;;;;;;;;;;;;;;23.87;41.09;100332.16;4446094;32;19981;-86
2022/07/20 04:49:42;;;;;;;;;;;;;;;23.83;41.94;100333.16;4418869;32;20778;-85
2022/07/20 04:52:09;;;;;;;;;;;;;;;23.79;42.53;100326.22;4445228;32;20028;-86
2022/07/20 04:54:41;;;;;;;;;;;;;;;23.98;42.05;100330.03;4431752;32;19977;-86
2022/07/20 04:57:09;;;;;;;;;;;;;;;24.10;42.32;100336.72;4416273;32;20307;-85
2022/07/20 04:59:37;;;;;;;;;;;;;;;24.23;41.36;100337.19;4430352;32;19981;-84
2022/07/20 05:02:05;;;;;;;;;;;;;;;24.24;40.80;100328.34;4430311;32;20004;-85
2022/07/20 05:04:32;;;;;;;;;;;;;;;24.35;41.47;100331.53;4430307;32;19993;-85
2022/07/20 05:06:59;;;;;;;;;;;;;;;24.39;41.33;100338.44;4416452;32;20018;-85
2022/07/20 05:09:26;;;;;;;;;;;;;;;24.36;40.94;100339.38;4439421;32;20118;-86
2022/07/20 05:11:53;;;;;;;;;;;;;;;24.42;40.08;100338.37;4432524;32;20283;-86
2022/07/20 05:14:20;;;;;;;;;;;;;;;24.37;39.10;100340.25;4430458;32;19973;-86
2022/07/20 05:16:47;;;;;;;;;;;;;;;24.54;38.84;100340.59;4430330;32;20027;-85
2022/07/20 05:19:13;;;;;;;;;;;;;;;24.59;38.57;100336.00;4434270;32;20064;-85
2022/07/20 05:21:40;;;;;;;;;;;;;;;24.66;38.36;100341.09;4441544;32;19993;-86
2022/07/20 05:24:08;;;;;;;;;;;;;;;24.75;38.19;100341.63;4445337;32;19985;-85
2022/07/20 05:26:34;;;;;;;;;;;;;;;24.78;38.30;100338.03;4435635;32;20000;-85
2022/07/20 05:29:01;;;;;;;;;;;;;;;24.86;38.31;100343.94;4438413;32;20002;-85
2022/07/20 05:31:28;;;;;;;;;;;;;;;24.96;38.23;100340.03;4417496;32;19985;-84
2022/07/20 05:33:55;;;;;;;;;;;;;;;24.95;37.81;100348.03;4430666;32;19999;-84
2022/07/20 05:36:22;;;;;;;;;;;;;;;25.01;38.25;100343.38;4438667;32;19989;-85
2022/07/20 05:38:50;;;;;;;;;;;;;;;25.14;37.51;100342.97;4429659;32;20004;-84
2022/07/20 05:41:17;;;;;;;;;;;;;;;25.19;37.44;100336.59;4442881;32;19976;-84
2022/07/20 05:43:44;;;;;;;;;;;;;;;25.30;37.07;100341.50;4446812;32;20037;-84
2022/07/20 05:46:11;;;;;;;;;;;;;;;25.28;36.74;100332.75;3833844;32;20002993;-85
2022/07/20 05:48:39;;;;;;;;;;;;;;;25.43;36.79;100342.78;4471271;32;20043;-85
2022/07/20 05:51:05;;;;;;;;;;;;;;;25.52;36.76;100334.47;4463510;32;20055;-84
2022/07/20 05:53:33;;;;;;;;;;;;;;;25.60;36.83;100330.69;4463445;32;19973;-84
2022/07/20 05:55:59;;;;;;;;;;;;;;;25.60;37.00;100338.66;4470760;32;19984;-85
2022/07/20 05:58:27;;;;;;;;;;;;;;;25.72;37.05;100330.22;4465195;32;20522;-85
2022/07/20 06:00:54;;;;;;;;;;;;;;;25.84;36.76;100335.06;4469883;32;19995;-85
2022/07/20 06:03:23;;;;;;;;;;;;;;;25.87;37.03;100337.59;4468248;32;19987;-86
2022/07/20 06:05:50;;;;;;;;;;;;;;;25.97;36.29;100336.34;4465728;32;19981;-84
2022/07/20 06:08:17;;;;;;;;;;;;;;;25.96;36.16;100339.03;4463177;32;19980;-84
2022/07/20 06:10:44;;;;;;;;;;;;;;;25.93;37.12;100340.00;4461434;32;20034;-82
2022/07/20 06:13:11;;;;;;;;;;;;;;;26.06;36.69;100340.38;4465455;32;20073;-82
2022/07/20 06:15:39;;;;;;;;;;;;;;;26.35;36.48;100335.69;4473337;32;20415;-82
2022/07/20 06:18:07;;;;;;;;;;;;;;;26.25;35.83;100342.31;4475877;32;20749;-80
2022/07/20 06:20:35;;;;;;;;;;;;;;;26.37;35.77;100345.31;4456174;32;19985;-82
2022/07/20 06:23:02;;;;;;;;;;;;;;;26.58;35.61;100342.72;4462063;32;19977;-81
2022/07/20 06:25:29;;;;;;;;;;;;;;;26.79;35.51;100341.81;4454899;32;20031;-81
2022/07/20 06:27:58;;;;;;;;;;;;;;;26.93;33.25;100353.62;4461404;32;20039;-81
2022/07/20 06:30:25;;;;;;;;;;;;;;;27.30;33.26;100348.47;4462563;32;19984;-81
2022/07/20 06:32:52;;;;;;;;;;;;;;;27.71;33.70;100348.34;4462513;32;20034;-81
2022/07/20 06:35:21;;;;;;;;;;;;;;;28.03;32.09;100348.66;4462526;32;20086;-81
2022/07/20 06:37:48;;;;;;;;;;;;;;;28.45;31.39;100350.19;4443068;32;20003;-81
2022/07/20 06:40:15;;;;;;;;;;;;;;;28.89;30.58;100344.41;4457841;32;20322;-81
2022/07/20 06:42:42;;;;;;;;;;;;;;;29.21;31.41;100334.75;4447731;32;19990;-82
2022/07/20 06:45:10;;;;;;;;;;;;;;;29.57;31.31;100333.69;4420268;32;20077;-82
2022/07/20 06:47:37;;;;;;;;;;;;;;;29.95;29.04;100336.94;4446911;32;19985;-82
2022/07/20 06:50:04;;;;;;;;;;;;;;;30.29;28.27;100332.37;4446764;32;20000;-82
2022/07/20 06:52:32;;;;;;;;;;;;;;;30.66;28.18;100338.22;4447299;32;20286;-82
2022/07/20 06:54:59;;;;;;;;;;;;;;;30.92;28.06;100334.00;4376703;32;20046;-83
2022/07/20 06:57:26;;;;;;;;;;;;;;;31.23;27.73;100338.31;4432344;32;20028;-83
2022/07/20 06:59:53;;;;;;;;;;;;;;;31.49;28.94;100334.06;4432270;32;19985;-83
2022/07/20 07:02:20;;;;;;;;;;;;;;;31.58;27.58;100337.97;4446179;32;20014;-83
2022/07/20 07:04:48;;;;;;;;;;;;;;;31.90;27.03;100334.09;4430674;32;19981;-82
2022/07/20 07:07:15;;;;;;;;;;;;;;;32.03;27.95;100333.31;4447186;32;20056;-82
2022/07/20 07:09:42;;;;;;;;;;;;;;;32.13;26.88;100331.75;4446678;32;19985;-82
2022/07/20 07:12:09;;;;;;;;;;;;;;;32.43;27.02;100331.56;4440733;32;19991;-83
2022/07/20 07:14:37;;;;;;;;;;;;;;;32.53;25.72;100337.16;4421291;32;20019;-82
2022/07/20 07:17:04;;;;;;;;;;;;;;;32.89;26.43;100331.94;4435343;32;20326;-82
2022/07/20 07:19:31;;;;;;;;;;;;;;;32.86;26.05;100334.84;4438323;32;19985;-82
2022/07/20 07:21:58;;;;;;;;;;;;;;;33.11;27.60;100338.53;4440338;32;19982;-83
2022/07/20 07:24:25;;;;;;;;;;;;;;;33.51;26.59;100330.41;4437392;32;19998;-83
2022/07/20 07:26:55;;;;;;;;;;;;;;;33.65;26.07;100338.28;4426485;32;20323;-82
2022/07/20 07:29:23;;;;;;;;;;;;;;;33.97;25.24;100333.25;4438856;32;19993;-83
2022/07/20 07:31:50;;;;;;;;;;;;;;;33.79;24.53;100329.22;4437842;32;19987;-83
2022/07/20 07:34:17;;;;;;;;;;;;;;;33.72;25.67;100334.19;4439840;32;20040;-83
2022/07/20 07:36:44;;;;;;;;;;;;;;;33.95;24.35;100334.34;4423973;32;19984;-82
2022/07/20 07:39:12;;;;;;;;;;;;;;;34.14;22.75;100332.06;4427949;32;20030;-83
2022/07/20 07:41:39;;;;;;;;;;;;;;;34.36;23.56;100333.09;4437917;32;20081;-83
2022/07/20 07:44:06;;;;;;;;;;;;;;;34.45;24.24;100329.72;4436568;32;19986;-82
2022/07/20 07:46:33;;;;;;;;;;;;;;;34.60;24.81;100325.91;4436651;32;19981;-83
2022/07/20 07:49:00;;;;;;;;;;;;;;;34.59;25.33;100324.19;4412179;32;20008;-83
2022/07/20 07:51:27;;;;;;;;;;;;;;;34.83;23.52;100326.81;4440671;32;20286;-83
2022/07/20 07:53:54;;;;;;;;;;;;;;;34.93;21.73;100321.56;4437017;32;20357;-83
2022/07/20 07:56:21;;;;;;;;;;;;;;;35.23;24.01;100322.84;4430598;32;19993;-83
2022/07/20 07:58:48;;;;;;;;;;;;;;;35.02;21.08;100320.84;4408806;32;20026;-83
2022/07/20 08:01:35;;;;;;;;;;;;;;;35.45;20.31;100322.88;4439466;32;19985;-82
2022/07/20 08:04:03;;;;;;;;;;;;;;;35.12;21.23;100326.41;4429856;32;19970;-81
2022/07/20 08:06:30;;;;;;;;;;;;;;;35.47;22.66;100320.88;4415653;32;20001;-83
2022/07/20 08:08:58;;;;;;;;;;;;;;;35.54;21.66;100316.75;4403564;32;20259;-80
2022/07/20 08:11:29;;;;;;;;;;;;;;;35.74;23.08;100311.56;4436117;32;20010;-80
2022/07/20 08:13:56;;;;;;;;;;;;;;;35.44;22.69;100310.38;4431822;32;20072;-80
2022/07/20 08:16:22;;;;;;;;;;;;;;;35.80;22.07;100316.47;4430286;32;19995;-81
2022/07/20 08:18:50;;;;;;;;;;;;;;;36.09;21.67;100312.25;4430190;32;19985;-80
2022/07/20 08:21:17;;;;;;;;;;;;;;;36.17;21.48;100318.84;4435925;32;19997;-82
2022/07/20 08:23:44;;;;;;;;;;;;;;;35.96;21.36;100306.16;4432518;32;20384;-80
2022/07/20 08:26:12;;;;;;;;;;;;;;;36.08;20.69;100315.06;4432228;32;19977;-80
2022/07/20 08:28:40;;;;;;;;;;;;;;;36.27;20.68;100314.38;4437786;32;20043;-81
2022/07/20 08:31:07;;;;;;;;;;;;;;;36.25;20.00;100316.34;4414651;32;20033;-80
2022/07/20 08:33:34;;;;;;;;;;;;;;;36.72;20.03;100314.19;4430420;32;19981;-81
2022/07/20 08:36:01;;;;;;;;;;;;;;;36.54;21.61;100312.09;4430774;32;20008;-81
2022/07/20 08:38:28;;;;;;;;;;;;;;;36.38;22.04;100311.66;4442578;32;19992;-80
2022/07/20 08:40:56;;;;;;;;;;;;;;;36.49;21.59;100314.28;4447111;32;20319;-81
2022/07/20 08:43:23;;;;;;;;;;;;;;;36.51;21.95;100316.91;4431410;32;20323;-81
2022/07/20 08:45:50;;;;;;;;;;;;;;;36.48;20.72;100309.03;4445964;32;19992;-81
2022/07/20 08:48:18;;;;;;;;;;;;;;;36.75;19.79;100313.91;4432326;32;20001;-80
2022/07/20 08:50:46;;;;;;;;;;;;;;;36.78;20.84;100308.25;4442989;32;20011;-81
2022/07/20 08:53:13;;;;;;;;;;;;;;;36.94;19.58;100308.63;4432081;32;20019;-82
2022/07/20 08:55:40;;;;;;;;;;;;;;;36.52;22.73;100314.06;4452831;32;19988;-81
2022/07/20 08:58:08;;;;;;;;;;;;;;;36.40;19.79;100304.28;4446031;32;20345;-81
2022/07/20 09:00:35;;;;;;;;;;;;;;;36.28;20.10;100305.31;4431394;32;19980;-82
2022/07/20 09:03:04;;;;;;;;;;;;;;;36.57;21.09;100304.69;4446006;32;19989;-81
2022/07/20 09:05:32;;;;;;;;;;;;;;;36.92;20.34;100304.34;4428807;32;19995;-81
2022/07/20 09:08:00;;;;;;;;;;;;;;;36.93;18.13;100301.53;4424890;32;19981;-81
2022/07/20 09:10:28;;;;;;;;;;;;;;;36.79;20.63;100304.56;4448138;32;19969;-81
2022/07/20 09:12:59;;;;;;;;;;;;;;;37.26;18.42;100296.88;4447974;32;19985;-80
2022/07/20 09:15:36;;;;;;;;;;;;;;;37.56;16.69;100287.06;4441903;32;19993;-81
2022/07/20 09:18:07;;;;;;;;;;;;;;;37.88;16.76;100287.69;4454465;32;19989;-81
2022/07/20 09:20:35;;;;;;;;;;;;;;;37.76;17.96;100288.81;4433953;32;19970;-82
2022/07/20 09:23:03;;;;;;;;;;;;;;;37.54;17.64;100286.34;4447796;32;20044;-81
2022/07/20 09:25:30;;;;;;;;;;;;;;;37.66;18.64;100286.09;4438148;32;19986;-81
2022/07/20 09:27:57;;;;;;;;;;;;;;;37.10;19.43;100280.34;4447791;32;20047;-83
2022/07/20 09:30:25;;;;;;;;;;;;;;;37.86;17.41;100278.88;4433660;32;20044;-82
2022/07/20 09:32:57;;;;;;;;;;;;;;;37.38;18.72;100279.59;4433107;32;20263;-84
2022/07/20 09:35:26;;;;;;;;;;;;;;;37.46;18.26;100277.09;4447624;32;19976;-85
2022/07/20 09:38:06;;;;;;;;;;;;;;;37.70;16.12;100273.16;4439851;32;19993;-86
2022/07/20 09:40:38;;;;;;;;;;;;;;;37.77;17.06;100274.31;4441626;32;20037;-82
2022/07/20 09:43:05;;;;;;;;;;;;;;;37.43;16.32;100266.53;4447712;32;20001;-84
2022/07/20 09:45:33;;;;;;;;;;;;;;;37.53;19.15;100269.31;4448391;32;20356;-85
2022/07/20 09:48:09;;;;;;;;;;;;;;;37.86;16.91;100262.66;4132916;32;10003965;-83
2022/07/20 09:50:38;;;;;;;;;;;;;;;38.26;16.43;100253.59;4416591;32;19970;-82
2022/07/20 09:53:05;;;;;;;;;;;;;;;37.81;18.82;100270.31;4416933;32;20319;-81
2022/07/20 09:55:32;;;;;;;;;;;;;;;37.53;17.21;100260.34;4395836;32;19985;-81
2022/07/20 09:58:00;;;;;;;;;;;;;;;37.62;15.90;100254.06;4471178;32;20015;-81
2022/07/20 10:00:27;;;;;;;;;;;;;;;38.24;16.70;100254.72;4449071;32;20380;-80
2022/07/20 10:02:55;;;;;;;;;;;;;;;38.60;15.32;100261.25;4463334;32;19981;-81
2022/07/20 10:05:26;;;;;;;;;;;;;;;38.06;14.73;100247.31;4468855;32;19973;-81
2022/07/20 10:07:54;;;;;;;;;;;;;;;38.40;15.91;100254.16;4455919;32;20025;-80
2022/07/20 10:10:21;;;;;;;;;;;;;;;38.49;15.79;100264.13;4435714;32;19998;-81
2022/07/20 10:12:47;;;;;;;;;;;;;;;38.49;15.32;100253.31;4457908;32;20337;-80
2022/07/20 10:15:23;;;;;;;;;;;;;;;38.89;14.06;100254.91;4469937;32;19974;-81
2022/07/20 10:17:50;;;;;;;;;;;;;;;38.68;15.17;100247.84;4448208;32;20055;-81
2022/07/20 10:20:30;;;;;;;;;;;;;;;38.80;14.32;100246.66;4462527;32;20040;-81
2022/07/20 10:23:13;;;;;;;;;;;;;;;38.77;14.39;100246.97;4470036;32;20018;-80
2022/07/20 10:25:43;;;;;;;;;;;;;;;38.47;16.71;100236.34;4433510;32;20492;-79
2022/07/20 10:28:23;;;;;;;;;;;;;;;38.95;16.20;100246.22;4432150;32;19973;-80
2022/07/20 10:30:57;;;;;;;;;;;;;;;38.83;14.78;100243.69;4431426;32;20320;-80
2022/07/20 10:33:24;;;;;;;;;;;;;;;39.07;15.18;100240.44;4433872;32;20314;-83
2022/07/20 10:35:52;;;;;;;;;;;;;;;39.04;14.06;100232.63;4421771;32;20362;-83
2022/07/20 10:38:20;;;;;;;;;;;;;;;38.22;17.55;100225.09;4424004;32;20419;-82
2022/07/20 10:44:06;;;;;;;;;;;;;;;38.90;15.55;100234.97;4431544;32;20304;-82
2022/07/20 10:46:34;;;;;;;;;;;;;;;38.12;16.91;100232.38;4433623;32;20124;-80
2022/07/20 10:49:01;;;;;;;;;;;;;;;38.32;15.23;100225.97;4420217;32;20001;-80
2022/07/20 10:51:28;;;;;;;;;;;;;;;39.00;14.38;100227.66;4447094;32;19987;-80
2022/07/20 10:53:55;;;;;;;;;;;;;;;37.52;17.43;100226.19;4446994;32;19992;-80
2022/07/20 10:56:28;;;;;;;;;;;;;;;38.19;16.70;100229.94;4442325;32;20013;-80
2022/07/20 10:58:59;;;;;;;;;;;;;;;38.08;15.35;100217.44;4435800;32;20039;-81
2022/07/20 11:01:26;;;;;;;;;;;;;;;37.35;16.78;100215.06;4436694;32;20342;-81
2022/07/20 11:03:55;;;;;;;;;;;;;;;37.95;15.25;100216.91;4445673;32;19981;-81
2022/07/20 11:06:23;;;;;;;;;;;;;;;38.22;14.93;100208.88;4444996;32;20026;-80
2022/07/20 11:08:50;;;;;;;;;;;;;;;38.16;15.62;100201.34;4449518;32;20466;-81
2022/07/20 11:11:22;;;;;;;;;;;;;;;38.07;15.80;100196.81;4455232;32;20776;-81
2022/07/20 11:13:49;;;;;;;;;;;;;;;37.14;17.41;100195.38;4442841;32;19981;-81
2022/07/20 11:16:17;;;;;;;;;;;;;;;36.95;17.82;100207.81;4457938;32;20012;-81
2022/07/20 11:18:44;;;;;;;;;;;;;;;37.11;16.83;100201.94;4446126;32;20040;-82
2022/07/20 11:21:12;;;;;;;;;;;;;;;37.03;18.17;100198.19;4454225;32;19982;-81
2022/07/20 11:23:42;;;;;;;;;;;;;;;37.21;16.86;100197.41;4449990;32;20437;-80
2022/07/20 11:26:09;;;;;;;;;;;;;;;36.62;16.98;100199.97;4451738;32;20044;-81
2022/07/20 11:28:38;;;;;;;;;;;;;;;37.18;16.04;100191.44;4446398;32;19972;-82
2022/07/20 11:31:07;;;;;;;;;;;;;;;37.33;16.39;100184.62;4446354;32;19981;-81
2022/07/20 11:33:35;;;;;;;;;;;;;;;38.00;16.32;100185.72;4446129;32;19973;-82
2022/07/20 11:36:03;;;;;;;;;;;;;;;38.10;15.13;100181.16;4449705;32;19976;-82
2022/07/20 11:38:34;;;;;;;;;;;;;;;38.43;14.04;100178.12;4453144;32;20315;-82
2022/07/20 11:41:02;;;;;;;;;;;;;;;38.56;13.81;100175.97;4432002;32;20871;-81
2022/07/20 11:43:29;;;;;;;;;;;;;;;38.59;14.50;100172.97;4443632;32;19985;-81
2022/07/20 11:46:12;;;;;;;;;;;;;;;38.67;13.89;100175.75;4461369;32;19969;-80
2022/07/20 11:48:39;;;;;;;;;;;;;;;38.47;15.25;100174.12;4456313;32;20018;-81
2022/07/20 11:51:26;;;;;;;;;;;;;;;37.82;16.52;100172.06;4445034;32;20032;-80
2022/07/20 11:53:54;;;;;;;;;;;;;;;37.83;16.31;100159.37;4450761;32;20097;-81
2022/07/20 11:56:23;;;;;;;;;;;;;;;38.40;16.46;100167.59;4451449;32;20382;-81
2022/07/20 11:58:50;;;;;;;;;;;;;;;38.63;14.96;100168.09;4454031;32;20064;-83
2022/07/20 12:01:19;;;;;;;;;;;;;;;38.22;15.97;100162.91;4451462;32;20346;-81
2022/07/20 12:03:52;;;;;;;;;;;;;;;38.14;16.44;100163.66;4456946;32;20318;-81
2022/07/20 12:06:20;;;;;;;;;;;;;;;37.81;15.98;100162.22;4438454;32;20041;-80
2022/07/20 12:09:05;;;;;;;;;;;;;;;37.37;17.09;100159.06;4452078;32;20471;-81
2022/07/20 12:11:35;;;;;;;;;;;;;;;38.12;15.13;100154.81;4454872;32;20044;-80
2022/07/20 12:14:02;;;;;;;;;;;;;;;38.54;13.83;100154.44;4454259;32;20024;-81
2022/07/20 12:16:39;;;;;;;;;;;;;;;38.35;14.92;100149.91;4455858;32;20040;-82
2022/07/20 12:19:06;;;;;;;;;;;;;;;38.58;14.40;100155.03;4438777;32;20411;-80
2022/07/20 12:21:40;;;;;;;;;;;;;;;38.65;14.17;100150.72;4453161;32;20378;-82
2022/07/20 12:24:07;;;;;;;;;;;;;;;38.69;15.66;100149.41;4435989;32;20460;-83
2022/07/20 12:26:37;;;;;;;;;;;;;;;38.25;14.61;100138.28;4449458;32;20412;-82
2022/07/20 12:29:16;;;;;;;;;;;;;;;38.61;16.08;100138.47;4452556;32;19984;-82
2022/07/20 12:31:43;;;;;;;;;;;;;;;38.33;16.52;100135.72;4455336;32;20096;-82
2022/07/20 12:34:13;;;;;;;;;;;;;;;38.34;15.56;100131.16;4453099;32;19993;-81
2022/07/20 12:36:43;;;;;;;;;;;;;;;38.69;15.18;100130.47;4454823;32;20029;-81
2022/07/20 12:39:12;;;;;;;;;;;;;;;38.16;15.08;100133.75;4441290;32;19991;-81
2022/07/20 12:41:39;;;;;;;;;;;;;;;38.65;14.39;100123.66;4437140;32;20034;-81
2022/07/20 12:44:28;;;;;;;;;;;;;;;38.77;14.35;100130.59;4433459;32;19965;-80
2022/07/20 12:46:56;;;;;;;;;;;;;;;37.62;15.92;100127.09;4424473;32;20003;-79